JJG weather

Humberto Ghizzo Bortoluzzi Regional Airport
Jaguaruna, Santa Catarina, Brazil

Public forecast

Using degrees Celsius for public forecast. Weather courtesy of forecast.io.

METAR (pilot weather report)

Report is more than 6 hours old.

Closest report is Diomício Freitas Airport, 19.3 nm (35.7 km) W. Retrieved 2017/07/19 22:00 UTC (2 years ago):

SBCM 192200Z 00000KT CAVOK 10/07 Q1026

TAF (pilot weather forecast)

Closest forecast is Hercílio Luz International Airport, 66.0 nm (122.3 km) NNE. Retrieved 2019/04/25 12:00 UTC (2 hours ago):

TAF SBFL 250900Z 2512/2612 00000KT 9999 BKN020 TX26/2516Z TN22/2608Z BECMG 2512/2514 03007KT BKN030 BECMG 2514/2516 SCT030 TEMPO 2600/2606 8000 SHRA BKN020 FEW035TCU RMK PDJ